Terminal Aerodrome Forecast
Issued by NWS

Home | Current Version | Previous Version | Text Only | Print | Product List | Glossary On
Versions: 1 2 3 4 5 6 7 8 9 10 11 12 13 14 15 16
000
FTUS42 KFFC 211725
TAFFTY
TAF
KFTY 211725Z 2118/2218 23003KT P6SM SCT050
     FM211900 21006KT P6SM VCSH SCT050
     FM220100 00000KT P6SM FEW250
     FM221400 25003KT P6SM FEW030 SCT250
     FM221600 23006KT P6SM SCT040=

USA.gov is the U.S. government's official web portal to all federal, state and local government web resources and services.